Terminal Aerodrome Forecast
Issued by NWS

Home | Current Version | Previous Version | Text Only | Print | Product List | Glossary On
Versions: 1 2 3 4 5 6 7 8 9 10 11 12 13 14 15 16
111
FTUS46 KPDT 271720
TAFPSC
TAF
KPSC 271720Z 2718/2818 19011KT P6SM FEW060 BKN200
     FM272200 24006KT P6SM FEW080 SCT200
     FM280600 28008KT P6SM FEW200
     FM281200 22006KT P6SM SKC=

USA.gov is the U.S. government's official web portal to all federal, state and local government web resources and services.